createdAt,value
2023-04-24T00:00:02.550Z,21.73
2023-04-24T00:02:31.606Z,21.38
2023-04-24T00:05:04.129Z,20.30
2023-04-24T00:07:32.905Z,20.13
2023-04-24T00:10:01.069Z,20.15
2023-04-24T00:12:29.583Z,19.85
2023-04-24T00:14:59.517Z,20.90
2023-04-24T00:17:27.727Z,20.10
2023-04-24T00:19:59.565Z,20.08
2023-04-24T00:22:30.070Z,20.00
2023-04-24T00:24:58.230Z,19.48
2023-04-24T00:27:26.471Z,19.25
2023-04-24T00:29:54.829Z,18.88
2023-04-24T00:32:24.385Z,18.67
2023-04-24T00:34:52.641Z,18.50
2023-04-24T00:37:21.774Z,18.65
2023-04-24T00:39:49.965Z,17.80
2023-04-24T00:42:18.270Z,17.10
2023-04-24T00:44:47.161Z,15.93
2023-04-24T00:47:16.214Z,16.60
2023-04-24T00:49:46.360Z,16.40
2023-04-24T00:52:19.065Z,15.77
2023-04-24T00:54:47.643Z,13.88
2023-04-24T00:57:16.934Z,14.43
2023-04-24T00:59:46.365Z,13.18
2023-04-24T01:02:16.762Z,11.25
2023-04-24T01:04:46.634Z,8.82
2023-04-24T01:07:15.039Z,8.18
2023-04-24T01:09:44.139Z,8.75
2023-04-24T01:12:13.072Z,8.55
2023-04-24T01:14:41.729Z,9.93
2023-04-24T01:17:10.308Z,9.80
2023-04-24T01:19:39.238Z,11.20
2023-04-24T01:22:13.583Z,12.48
2023-04-24T01:24:42.096Z,13.23
2023-04-24T01:27:11.361Z,14.05
2023-04-24T01:29:40.047Z,16.30
2023-04-24T01:32:09.206Z,15.65
2023-04-24T01:34:37.528Z,15.85
2023-04-24T01:37:06.710Z,15.95
2023-04-24T01:39:36.303Z,15.20
2023-04-24T01:42:04.652Z,15.70
2023-04-24T01:44:33.495Z,15.35
2023-04-24T01:47:03.461Z,16.25
2023-04-24T01:49:32.006Z,15.75
2023-04-24T01:52:00.706Z,15.77
2023-04-24T01:54:29.152Z,15.93
2023-04-24T01:56:59.050Z,16.85
2023-04-24T01:59:29.454Z,16.55
2023-04-24T02:01:58.153Z,15.77
2023-04-24T02:04:26.469Z,16.33
2023-04-24T02:06:54.740Z,16.27
2023-04-24T02:09:23.018Z,16.55
2023-04-24T02:11:51.202Z,15.65
2023-04-24T02:14:21.152Z,15.80
2023-04-24T02:16:49.484Z,15.68
2023-04-24T02:19:17.716Z,16.15
2023-04-24T02:21:46.036Z,15.48
2023-04-24T02:24:14.400Z,14.75
2023-04-24T02:26:42.560Z,15.07
2023-04-24T02:29:11.200Z,15.32
2023-04-24T02:31:41.185Z,15.10
2023-04-24T02:34:10.378Z,15.35
2023-04-24T02:36:38.930Z,14.95
2023-04-24T02:39:07.377Z,14.73
2023-04-24T02:41:35.593Z,14.63
2023-04-24T02:44:04.446Z,15.15
2023-04-24T02:46:32.582Z,15.07
2023-04-24T02:49:02.129Z,15.23
2023-04-24T02:51:31.049Z,15.98
2023-04-24T02:53:59.220Z,15.15
2023-04-24T02:56:27.461Z,15.23
2023-04-24T02:58:56.348Z,15.77
2023-04-24T03:01:24.556Z,15.80
2023-04-24T03:03:53.236Z,15.35
2023-04-24T03:06:23.326Z,15.57
2023-04-24T03:08:51.545Z,14.60
2023-04-24T03:11:19.694Z,13.45
2023-04-24T03:13:48.272Z,14.30
2023-04-24T03:16:16.572Z,13.15
2023-04-24T03:18:44.845Z,13.80
2023-04-24T03:21:14.250Z,14.05
2023-04-24T03:23:43.971Z,14.50
2023-04-24T03:26:12.140Z,13.40
2023-04-24T03:28:40.766Z,13.23
2023-04-24T03:31:09.084Z,13.82
2023-04-24T03:33:37.400Z,13.80
2023-04-24T03:36:06.756Z,12.38
2023-04-24T03:38:34.951Z,11.63
2023-04-24T03:41:04.565Z,12.07
2023-04-24T03:43:34.551Z,10.18
2023-04-24T03:46:03.120Z,10.68
2023-04-24T03:48:31.443Z,10.48
2023-04-24T03:50:59.967Z,10.60
2023-04-24T03:53:28.277Z,11.45
2023-04-24T03:55:56.672Z,10.75
2023-04-24T03:58:26.464Z,11.00
2023-04-24T04:00:54.767Z,12.70
2023-04-24T04:03:23.343Z,12.45
2023-04-24T04:05:52.627Z,12.38
2023-04-24T04:08:20.989Z,13.30
2023-04-24T04:10:49.222Z,14.25
2023-04-24T04:13:17.758Z,14.93
2023-04-24T04:15:47.459Z,16.55
2023-04-24T04:18:16.221Z,15.70
2023-04-24T04:20:45.077Z,16.88
2023-04-24T04:23:13.396Z,17.33
2023-04-24T04:25:41.617Z,18.33
2023-04-24T04:28:10.220Z,17.63
2023-04-24T04:30:39.351Z,18.38
2023-04-24T04:33:09.277Z,18.08
2023-04-24T04:35:37.938Z,18.63
2023-04-24T04:38:09.404Z,18.70
2023-04-24T04:40:37.622Z,18.48
2023-04-24T04:43:05.953Z,18.77
2023-04-24T04:45:35.408Z,17.27
2023-04-24T04:48:04.533Z,17.20
2023-04-24T04:50:34.483Z,16.15
2023-04-24T04:53:02.845Z,16.35
2023-04-24T04:55:31.157Z,17.45
2023-04-24T04:57:59.776Z,16.95
2023-04-24T05:00:29.987Z,16.33
2023-04-24T05:03:09.092Z,17.13
2023-04-24T05:05:48.704Z,17.20
2023-04-24T05:08:26.357Z,17.25
2023-04-24T05:10:55.304Z,15.23
2023-04-24T05:13:35.606Z,15.68
2023-04-24T05:16:08.140Z,15.77
2023-04-24T05:18:36.402Z,16.65
2023-04-24T05:21:05.953Z,15.82
2023-04-24T05:23:34.435Z,16.48
2023-04-24T05:26:02.748Z,16.65
2023-04-24T05:28:31.199Z,16.50
2023-04-24T05:31:00.461Z,16.38
2023-04-24T05:33:29.060Z,16.27
2023-04-24T05:35:57.283Z,15.68
2023-04-24T05:38:26.972Z,17.08
2023-04-24T05:40:55.158Z,16.92
2023-04-24T05:43:23.338Z,18.63
2023-04-24T05:45:51.815Z,17.77
2023-04-24T05:48:20.214Z,18.60
2023-04-24T05:50:49.043Z,19.23
2023-04-24T05:53:17.600Z,20.45
2023-04-24T05:55:47.414Z,20.67
2023-04-24T05:58:16.327Z,20.15
2023-04-24T06:00:45.895Z,21.30
2023-04-24T06:03:14.490Z,20.85
2023-04-24T06:05:42.811Z,21.42
2023-04-24T06:08:11.760Z,21.80
2023-04-24T06:10:40.309Z,21.42
2023-04-24T06:13:09.854Z,21.10
2023-04-24T06:15:38.020Z,21.17
2023-04-24T06:18:06.603Z,20.90
2023-04-24T06:20:34.863Z,19.73
2023-04-24T06:23:03.056Z,20.05
2023-04-24T06:25:31.682Z,20.15
2023-04-24T06:28:00.009Z,20.05
2023-04-24T06:30:29.580Z,20.65
2023-04-24T06:33:03.121Z,19.17
2023-04-24T06:35:39.007Z,19.98
2023-04-24T06:38:07.718Z,19.83
2023-04-24T06:40:36.115Z,19.30
2023-04-24T06:43:04.281Z,20.95
2023-04-24T06:45:34.377Z,18.83
2023-04-24T06:48:02.874Z,18.30
2023-04-24T06:50:31.100Z,18.15
2023-04-24T06:52:59.640Z,18.55
2023-04-24T06:55:28.056Z,18.17
2023-04-24T06:57:56.302Z,18.00
2023-04-24T07:00:25.591Z,17.88
2023-04-24T07:02:55.660Z,18.45
2023-04-24T07:05:24.435Z,18.05
2023-04-24T07:07:53.297Z,17.48
2023-04-24T07:10:22.323Z,17.48
2023-04-24T07:12:51.196Z,17.27
2023-04-24T07:15:19.417Z,16.00
2023-04-24T07:17:47.906Z,15.07
2023-04-24T07:20:18.061Z,14.48
2023-04-24T07:22:46.258Z,14.32
2023-04-24T07:25:14.410Z,14.30
2023-04-24T07:27:42.642Z,13.52
2023-04-24T07:30:11.680Z,13.48
2023-04-24T07:32:39.819Z,12.35
2023-04-24T07:35:10.628Z,12.73
2023-04-24T07:37:40.590Z,12.55
2023-04-24T07:40:09.945Z,12.10
2023-04-24T07:42:38.042Z,12.20
2023-04-24T07:45:07.590Z,12.50
2023-04-24T07:47:38.194Z,12.32
2023-04-24T07:50:07.246Z,12.25
2023-04-24T07:52:35.471Z,12.32
2023-04-24T07:55:05.993Z,10.88
2023-04-24T07:57:34.172Z,9.65
2023-04-24T08:00:02.463Z,9.30
2023-04-24T08:02:30.897Z,8.77
2023-04-24T08:05:00.387Z,8.60
2023-04-24T08:07:28.877Z,8.23
2023-04-24T08:09:57.142Z,7.60
2023-04-24T08:12:26.736Z,7.53
2023-04-24T08:14:54.941Z,6.80
2023-04-24T08:17:23.819Z,6.40
2023-04-24T08:19:53.429Z,6.82
2023-04-24T08:22:21.665Z,5.53
2023-04-24T08:24:50.311Z,5.75
2023-04-24T08:27:18.454Z,5.85
2023-04-24T08:29:48.824Z,7.13
2023-04-24T08:32:16.983Z,7.70
2023-04-24T08:34:45.616Z,6.63
2023-04-24T08:37:15.274Z,7.55
2023-04-24T08:39:43.779Z,7.85
2023-04-24T08:42:15.034Z,8.32
2023-04-24T08:44:44.007Z,7.38
2023-04-24T08:47:15.846Z,7.15
2023-04-24T08:49:46.631Z,7.43
2023-04-24T08:52:15.632Z,6.50
2023-04-24T08:54:46.530Z,6.88
2023-04-24T08:57:16.967Z,7.00
2023-04-24T08:59:46.674Z,6.95
2023-04-24T09:02:18.408Z,5.75
2023-04-24T09:04:48.194Z,5.75
2023-04-24T09:07:19.036Z,5.80
2023-04-24T09:09:47.868Z,6.13
2023-04-24T09:12:16.627Z,5.65
2023-04-24T09:14:46.284Z,5.70
2023-04-24T09:17:16.445Z,6.10
2023-04-24T09:19:44.811Z,6.38
2023-04-24T09:22:14.109Z,6.18
2023-04-24T09:24:43.348Z,6.47
2023-04-24T09:27:14.437Z,6.10
2023-04-24T09:29:55.930Z,6.68
2023-04-24T09:32:27.225Z,6.63
2023-04-24T09:35:10.248Z,7.80
2023-04-24T09:37:39.413Z,6.72
2023-04-24T09:40:13.423Z,7.30
2023-04-24T09:42:42.471Z,8.00
2023-04-24T09:45:15.509Z,7.78
2023-04-24T09:50:16.912Z,7.57
2023-04-24T09:52:47.336Z,7.90
2023-04-24T09:55:21.541Z,8.18
2023-04-24T09:57:53.772Z,7.88
2023-04-24T10:00:24.923Z,7.53
2023-04-24T10:02:58.115Z,7.25
2023-04-24T10:05:29.027Z,7.72
2023-04-24T10:08:04.137Z,7.68
2023-04-24T10:10:33.139Z,8.00
2023-04-24T10:13:02.369Z,8.23
2023-04-24T10:15:31.538Z,8.68
2023-04-24T10:18:02.496Z,8.10
2023-04-24T10:20:32.341Z,8.13
2023-04-24T10:23:02.379Z,9.48
2023-04-24T10:25:32.356Z,8.85
2023-04-24T10:28:02.179Z,8.45
2023-04-24T10:30:33.360Z,7.97
2023-04-24T10:33:04.479Z,8.60
2023-04-24T10:35:34.314Z,9.35
2023-04-24T10:38:07.855Z,9.30
2023-04-24T10:40:38.002Z,9.85
2023-04-24T10:43:09.149Z,9.07
2023-04-24T10:45:37.828Z,10.50
2023-04-24T10:48:12.361Z,11.13
2023-04-24T10:50:47.007Z,10.40
2023-04-24T10:53:17.263Z,10.73
2023-04-24T10:55:47.591Z,10.65
2023-04-24T10:58:17.664Z,11.70
2023-04-24T11:00:47.256Z,11.30
2023-04-24T11:03:32.601Z,10.65
2023-04-24T11:06:03.816Z,9.93
2023-04-24T11:08:34.180Z,10.18
2023-04-24T11:11:06.415Z,9.55
2023-04-24T11:14:09.533Z,10.48
2023-04-24T11:16:45.782Z,10.07
2023-04-24T11:19:25.689Z,10.20
2023-04-24T11:22:00.080Z,10.43
2023-04-24T11:24:40.240Z,11.45
2023-04-24T11:27:15.084Z,11.43
2023-04-24T11:29:45.625Z,11.77
2023-04-24T11:32:21.949Z,12.60
2023-04-24T11:34:53.704Z,11.65
2023-04-24T11:37:21.909Z,12.50
2023-04-24T11:39:53.155Z,11.55
2023-04-24T11:42:23.176Z,11.45
2023-04-24T11:44:52.048Z,11.30
2023-04-24T11:47:20.704Z,11.23
2023-04-24T11:49:49.062Z,10.57
2023-04-24T11:52:19.739Z,10.98
2023-04-24T11:54:52.754Z,11.13
2023-04-24T11:57:23.546Z,10.57
2023-04-24T11:59:52.206Z,10.18
2023-04-24T12:02:25.413Z,9.80
2023-04-24T12:04:55.101Z,9.50
2023-04-24T12:07:26.543Z,9.48
2023-04-24T12:09:59.475Z,9.15
2023-04-24T12:12:29.480Z,9.02
2023-04-24T12:14:59.137Z,8.52
2023-04-24T12:17:29.794Z,8.55
2023-04-24T12:20:02.551Z,8.05
2023-04-24T12:22:46.596Z,7.70
2023-04-24T12:25:15.946Z,6.93
2023-04-24T12:27:44.409Z,5.90
2023-04-24T12:30:15.398Z,6.28
2023-04-24T12:32:45.183Z,6.30
2023-04-24T12:35:14.003Z,5.43
2023-04-24T12:37:47.480Z,5.60
2023-04-24T12:40:17.111Z,6.50
2023-04-24T12:42:47.480Z,5.13
2023-04-24T12:45:16.549Z,5.60
2023-04-24T12:47:46.533Z,5.40
2023-04-24T12:50:16.733Z,4.70
2023-04-24T12:52:46.511Z,4.80
2023-04-24T12:55:15.091Z,4.85
2023-04-24T12:57:43.801Z,5.20
2023-04-24T13:00:12.905Z,5.63
2023-04-24T13:02:41.368Z,5.10
2023-04-24T13:05:12.664Z,4.90
2023-04-24T13:07:40.877Z,4.90
2023-04-24T13:10:11.958Z,4.28
2023-04-24T13:12:40.313Z,3.90
2023-04-24T13:15:09.692Z,3.45
2023-04-24T13:17:38.237Z,3.70
2023-04-24T13:20:08.856Z,4.00
2023-04-24T13:22:37.844Z,3.58
2023-04-24T13:25:08.449Z,4.07
2023-04-24T13:27:38.142Z,3.78
2023-04-24T13:30:07.150Z,4.18
2023-04-24T13:32:36.591Z,3.85
2023-04-24T13:35:05.348Z,3.30
2023-04-24T13:37:33.527Z,3.25
2023-04-24T13:40:02.031Z,3.30
2023-04-24T13:42:30.590Z,3.22
2023-04-24T13:45:01.013Z,3.10
2023-04-24T13:47:31.097Z,3.42
2023-04-24T13:49:59.376Z,3.30
2023-04-24T13:52:27.544Z,2.97
2023-04-24T13:54:56.887Z,2.80
2023-04-24T13:57:25.024Z,2.67
2023-04-24T13:59:53.220Z,2.70
2023-04-24T14:02:23.508Z,2.80
2023-04-24T14:04:51.844Z,2.90
2023-04-24T14:07:20.382Z,2.70
2023-04-24T14:09:49.055Z,2.83
2023-04-24T14:12:19.648Z,2.88
2023-04-24T14:14:49.259Z,2.40
2023-04-24T14:17:17.641Z,2.60
2023-04-24T14:19:47.284Z,2.50
2023-04-24T14:22:15.666Z,2.20
2023-04-24T14:24:43.861Z,2.28
2023-04-24T14:27:12.001Z,2.30
2023-04-24T14:29:40.384Z,2.53
2023-04-24T14:32:10.067Z,2.60
2023-04-24T14:34:38.225Z,2.45
2023-04-24T14:37:07.870Z,2.30
2023-04-24T14:39:36.140Z,2.85
2023-04-24T14:42:04.317Z,2.08
2023-04-24T14:44:33.266Z,1.83
2023-04-24T14:47:01.681Z,1.85
2023-04-24T14:49:29.835Z,1.60
2023-04-24T14:51:58.199Z,1.60
2023-04-24T14:54:27.991Z,1.83
2023-04-24T14:56:57.906Z,1.80
2023-04-24T14:59:26.352Z,1.70
2023-04-24T15:02:14.622Z,1.90
2023-04-24T15:04:43.463Z,1.80
2023-04-24T15:07:12.021Z,1.58
2023-04-24T15:09:41.607Z,2.20
2023-04-24T15:12:10.932Z,1.75
2023-04-24T15:14:39.605Z,1.90
2023-04-24T15:17:07.973Z,1.90
2023-04-24T15:19:36.695Z,1.83
2023-04-24T15:22:04.932Z,2.03
2023-04-24T15:24:33.278Z,1.90
2023-04-24T15:27:04.229Z,2.33
2023-04-24T15:29:32.411Z,1.98
2023-04-24T15:32:00.631Z,2.33
2023-04-24T15:34:29.325Z,1.92
2023-04-24T15:36:57.802Z,1.90
2023-04-24T15:39:26.322Z,2.10
2023-04-24T15:41:55.308Z,1.90
2023-04-24T15:44:25.496Z,1.95
2023-04-24T15:46:53.639Z,1.90
2023-04-24T15:49:22.186Z,2.28
2023-04-24T15:51:50.593Z,2.10
2023-04-24T15:54:18.729Z,2.25
2023-04-24T15:56:47.159Z,1.95
2023-04-24T15:59:15.641Z,2.40
2023-04-24T16:01:45.631Z,2.38
2023-04-24T16:04:14.141Z,1.90
2023-04-24T16:06:43.260Z,2.00
2023-04-24T16:09:11.579Z,2.00
2023-04-24T16:11:40.160Z,1.90
2023-04-24T16:14:10.494Z,1.63
2023-04-24T16:16:39.037Z,1.95
2023-04-24T16:19:10.018Z,2.00
2023-04-24T16:21:38.169Z,2.03
2023-04-24T16:24:06.733Z,1.75
2023-04-24T16:26:35.446Z,2.17
2023-04-24T16:29:03.658Z,2.40
2023-04-24T16:31:32.348Z,2.25
2023-04-24T16:34:00.977Z,2.10
2023-04-24T16:36:30.670Z,2.35
2023-04-24T16:39:01.243Z,2.35
2023-04-24T16:41:29.452Z,1.77
2023-04-24T16:44:00.321Z,2.33
2023-04-24T16:46:28.717Z,2.30
2023-04-24T16:48:57.106Z,2.30
2023-04-24T16:51:25.409Z,2.05
2023-04-24T16:53:55.222Z,3.03
2023-04-24T16:56:23.468Z,2.33
2023-04-24T16:58:51.959Z,2.40
2023-04-24T17:01:20.591Z,2.22
2023-04-24T17:03:49.181Z,2.42
2023-04-24T17:06:17.483Z,2.38
2023-04-24T17:08:46.115Z,3.05
2023-04-24T17:11:16.120Z,2.70
2023-04-24T17:13:44.331Z,2.83
2023-04-24T17:16:12.890Z,2.47
2023-04-24T17:18:41.445Z,2.13
2023-04-24T17:21:09.714Z,2.40
2023-04-24T17:23:38.690Z,2.63
2023-04-24T17:26:07.325Z,2.47
2023-04-24T17:28:37.105Z,2.97
2023-04-24T17:31:05.690Z,2.75
2023-04-24T17:33:34.151Z,3.38
2023-04-24T17:36:02.849Z,3.30
2023-04-24T17:38:31.789Z,3.75
2023-04-24T17:41:00.467Z,4.30
2023-04-24T17:43:28.843Z,3.70
2023-04-24T17:45:59.549Z,3.35
2023-04-24T17:48:27.913Z,3.63
2023-04-24T17:50:56.311Z,3.47
2023-04-24T17:53:24.716Z,4.22
2023-04-24T17:55:54.325Z,3.90
2023-04-24T17:58:22.527Z,3.42
2023-04-24T18:00:51.188Z,3.65
2023-04-24T18:03:21.171Z,3.53
2023-04-24T18:05:49.460Z,3.58
2023-04-24T18:08:17.929Z,3.88
2023-04-24T18:10:46.405Z,3.38
2023-04-24T18:13:14.820Z,3.30
2023-04-24T18:15:43.901Z,3.80
2023-04-24T18:18:12.672Z,3.35
2023-04-24T18:20:42.362Z,3.22
2023-04-24T18:23:11.135Z,3.33
2023-04-24T18:25:39.467Z,3.17
2023-04-24T18:28:07.654Z,3.33
2023-04-24T18:30:36.247Z,4.68
2023-04-24T18:33:05.506Z,4.20
2023-04-24T18:35:33.799Z,3.72
2023-04-24T18:38:03.539Z,3.80
2023-04-24T18:40:32.075Z,3.85
2023-04-24T18:43:00.292Z,4.25
2023-04-24T18:45:28.819Z,4.43
2023-04-24T18:47:57.243Z,4.35
2023-04-24T18:50:27.707Z,4.47
2023-04-24T18:52:56.457Z,4.30
2023-04-24T18:55:26.245Z,4.20
2023-04-24T18:57:54.477Z,4.88
2023-04-24T19:00:22.868Z,4.65
2023-04-24T19:02:51.455Z,4.55
2023-04-24T19:05:19.968Z,4.93
2023-04-24T19:07:48.455Z,4.10
2023-04-24T19:10:16.777Z,4.95
2023-04-24T19:12:46.576Z,4.63
2023-04-24T19:15:15.001Z,5.13
2023-04-24T19:17:43.369Z,5.30
2023-04-24T19:20:12.932Z,4.78
2023-04-24T19:22:41.487Z,5.10
2023-04-24T19:25:10.452Z,5.40
2023-04-24T19:27:38.690Z,5.90
2023-04-24T19:30:10.317Z,6.45
2023-04-24T19:32:38.991Z,5.60
2023-04-24T19:35:07.752Z,6.25
2023-04-24T19:37:36.283Z,5.97
2023-04-24T19:40:05.458Z,5.93
2023-04-24T19:42:43.191Z,6.05
2023-04-24T19:45:14.820Z,6.22
2023-04-24T19:47:43.395Z,6.22
2023-04-24T19:50:11.896Z,6.10
2023-04-24T19:52:40.428Z,6.80
2023-04-24T19:55:09.405Z,6.05
2023-04-24T19:57:37.774Z,6.20
2023-04-24T20:00:07.141Z,5.60
2023-04-24T20:02:37.787Z,5.65
2023-04-24T20:05:07.007Z,6.13
2023-04-24T20:07:35.882Z,5.47
2023-04-24T20:10:04.181Z,5.57
2023-04-24T20:12:32.396Z,5.55
2023-04-24T20:15:00.901Z,5.55
2023-04-24T20:17:29.137Z,5.50
2023-04-24T20:19:58.764Z,5.30
2023-04-24T20:22:27.248Z,5.47
2023-04-24T20:24:55.983Z,7.55
2023-04-24T20:27:24.243Z,6.38
2023-04-24T20:29:54.712Z,5.95
2023-04-24T20:32:22.866Z,7.55
2023-04-24T20:34:51.071Z,6.65
2023-04-24T20:37:21.309Z,5.72
2023-04-24T20:39:50.416Z,5.22
2023-04-24T20:42:18.609Z,5.90
2023-04-24T20:44:47.407Z,6.22
2023-04-24T20:47:15.811Z,6.85
2023-04-24T20:49:44.009Z,7.10
2023-04-24T20:52:12.418Z,6.65
2023-04-24T20:54:41.999Z,6.30
2023-04-24T20:57:10.464Z,6.18
2023-04-24T20:59:39.594Z,6.55
2023-04-24T21:02:08.241Z,6.38
2023-04-24T21:04:38.644Z,6.93
2023-04-24T21:07:07.186Z,7.13
2023-04-24T21:09:36.193Z,6.68
2023-04-24T21:12:06.414Z,7.22
2023-04-24T21:14:34.541Z,8.52
2023-04-24T21:17:03.619Z,7.47
2023-04-24T21:19:31.951Z,6.75
2023-04-24T21:22:00.206Z,7.10
2023-04-24T21:24:28.640Z,7.50
2023-04-24T21:26:56.842Z,7.47
2023-04-24T21:29:26.904Z,7.28
2023-04-24T21:31:56.019Z,6.57
2023-04-24T21:34:24.225Z,6.97
2023-04-24T21:36:52.343Z,7.45
2023-04-24T21:39:21.451Z,9.38
2023-04-24T21:41:49.764Z,8.35
2023-04-24T21:44:18.095Z,7.68
2023-04-24T21:46:48.384Z,7.20
2023-04-24T21:49:16.712Z,7.35
2023-04-24T21:51:44.872Z,7.10
2023-04-24T21:54:13.154Z,7.80
2023-04-24T21:56:41.891Z,8.32
2023-04-24T21:59:10.570Z,8.45
2023-04-24T22:01:39.448Z,8.15
2023-04-24T22:04:09.177Z,8.07
2023-04-24T22:06:38.230Z,8.70
2023-04-24T22:09:07.770Z,8.98
2023-04-24T22:11:37.910Z,8.15
2023-04-24T22:14:07.144Z,7.50
2023-04-24T22:16:35.862Z,8.50
2023-04-24T22:19:04.981Z,8.38
2023-04-24T22:21:34.879Z,9.05
2023-04-24T22:24:03.212Z,9.43
2023-04-24T22:26:31.383Z,8.55
2023-04-24T22:28:59.554Z,9.23
2023-04-24T22:31:28.000Z,9.10
2023-04-24T22:33:56.807Z,9.05
2023-04-24T22:36:24.916Z,10.07
2023-04-24T22:38:54.744Z,9.63
2023-04-24T22:41:23.191Z,9.38
2023-04-24T22:43:51.816Z,9.75
2023-04-24T22:46:20.634Z,10.60
2023-04-24T22:48:49.458Z,10.73
2023-04-24T22:51:18.219Z,9.93
2023-04-24T22:53:47.038Z,10.90
2023-04-24T22:56:16.878Z,10.10
2023-04-24T22:58:45.385Z,11.00
2023-04-24T23:01:13.873Z,10.70
2023-04-24T23:03:42.667Z,11.90
2023-04-24T23:06:11.170Z,11.95
2023-04-24T23:08:39.588Z,12.23
2023-04-24T23:11:07.942Z,11.90
2023-04-24T23:13:38.182Z,13.32
2023-04-24T23:16:06.799Z,13.20
2023-04-24T23:18:34.977Z,14.02
2023-04-24T23:21:03.572Z,13.95
2023-04-24T23:23:31.791Z,14.23
2023-04-24T23:26:00.984Z,14.18
2023-04-24T23:28:29.258Z,15.20
2023-04-24T23:30:58.986Z,16.65
2023-04-24T23:33:28.500Z,15.13
2023-04-24T23:35:58.392Z,17.35
2023-04-24T23:38:30.143Z,19.50
2023-04-24T23:41:02.524Z,24.55
2023-04-24T23:43:30.727Z,24.50
2023-04-24T23:46:00.495Z,23.65
2023-04-24T23:48:28.654Z,22.83
2023-04-24T23:50:56.960Z,22.35
2023-04-24T23:53:25.272Z,21.92
2023-04-24T23:55:53.412Z,20.10
2023-04-24T23:58:21.814Z,17.08
